createdAt,value
2022-08-07T00:00:36.612Z,80.09
2022-08-07T00:03:08.978Z,79.74
2022-08-07T00:05:37.146Z,79.23
2022-08-07T00:08:08.092Z,80.00
2022-08-07T00:10:35.781Z,79.39
2022-08-07T00:13:25.540Z,79.64
2022-08-07T00:15:58.921Z,80.49
2022-08-07T00:18:29.681Z,80.23
2022-08-07T00:21:07.816Z,80.31
2022-08-07T00:23:39.562Z,79.52
2022-08-07T00:26:18.903Z,79.23
2022-08-07T00:28:57.297Z,80.17
2022-08-07T00:31:37.372Z,80.23
2022-08-07T00:34:08.718Z,80.64
2022-08-07T00:36:43.040Z,81.18
2022-08-07T00:39:12.825Z,81.25
2022-08-07T00:42:02.580Z,80.55
2022-08-07T00:44:33.681Z,81.38
2022-08-07T00:47:15.599Z,81.25
2022-08-07T00:50:20.234Z,80.60
2022-08-07T00:52:39.954Z,80.85
2022-08-07T00:55:10.348Z,80.91
2022-08-07T00:57:44.394Z,80.43
2022-08-07T01:00:25.742Z,80.78
2022-08-07T01:02:52.564Z,80.94
2022-08-07T01:05:24.644Z,80.12
2022-08-07T01:07:51.633Z,79.57
2022-08-07T01:10:18.976Z,80.59
2022-08-07T01:12:54.024Z,80.16
2022-08-07T01:15:36.042Z,80.62
2022-08-07T01:18:10.558Z,80.40
2022-08-07T01:20:45.135Z,79.36
2022-08-07T01:23:38.012Z,79.95
2022-08-07T01:26:12.242Z,79.60
2022-08-07T01:28:46.060Z,79.51
2022-08-07T01:31:18.090Z,79.37
2022-08-07T01:33:56.283Z,78.93
2022-08-07T01:36:33.239Z,78.28
2022-08-07T01:39:01.557Z,78.98
2022-08-07T01:41:37.265Z,79.16
2022-08-07T01:44:05.634Z,78.48
2022-08-07T01:46:33.142Z,77.67
2022-08-07T01:49:00.282Z,77.98
2022-08-07T01:52:01.177Z,77.27
2022-08-07T01:54:33.326Z,77.20
2022-08-07T01:57:20.730Z,77.04
2022-08-07T02:00:13.082Z,76.20
2022-08-07T02:03:11.640Z,76.62
2022-08-07T02:06:00.898Z,75.93
2022-08-07T02:08:30.949Z,77.11
2022-08-07T02:11:00.108Z,75.76
2022-08-07T02:13:56.863Z,75.31
2022-08-07T02:16:33.093Z,74.83
2022-08-07T02:19:05.740Z,75.20
2022-08-07T02:21:55.532Z,74.84
2022-08-07T02:24:26.245Z,75.32
2022-08-07T02:27:06.730Z,73.91
2022-08-07T02:29:43.338Z,74.92
2022-08-07T02:32:23.432Z,74.58
2022-08-07T02:35:01.007Z,74.87
2022-08-07T02:37:34.193Z,74.44
2022-08-07T02:40:31.222Z,74.09
2022-08-07T02:42:54.368Z,74.34
2022-08-07T02:45:58.068Z,75.25
2022-08-07T02:48:15.460Z,74.56
2022-08-07T02:50:45.224Z,75.25
2022-08-07T02:53:18.196Z,74.99
2022-08-07T02:56:04.025Z,75.05
2022-08-07T02:58:34.040Z,74.76
2022-08-07T03:01:06.077Z,74.72
2022-08-07T03:03:49.821Z,74.78
2022-08-07T03:06:26.222Z,75.45
2022-08-07T03:09:03.141Z,74.99
2022-08-07T03:11:38.846Z,75.10
2022-08-07T03:14:09.292Z,74.14
2022-08-07T03:16:38.498Z,75.39
2022-08-07T03:19:08.346Z,76.07
2022-08-07T03:21:37.354Z,75.49
2022-08-07T03:24:20.116Z,75.20
2022-08-07T03:26:58.900Z,75.93
2022-08-07T03:29:49.553Z,74.59
2022-08-07T03:32:23.202Z,75.12
2022-08-07T03:35:01.141Z,74.63
2022-08-07T03:37:46.408Z,75.42
2022-08-07T03:40:23.844Z,75.10
2022-08-07T03:43:01.102Z,76.20
2022-08-07T03:45:31.495Z,76.04
2022-08-07T03:48:03.144Z,76.00
2022-08-07T03:50:30.503Z,76.19
2022-08-07T03:53:02.818Z,75.85
2022-08-07T03:55:58.379Z,75.69
2022-08-07T03:59:05.042Z,74.69
2022-08-07T04:01:11.724Z,74.71
2022-08-07T04:03:53.781Z,74.56
2022-08-07T04:06:37.595Z,75.48
2022-08-07T04:09:08.459Z,74.39
2022-08-07T04:12:28.182Z,74.22
2022-08-07T04:14:36.718Z,74.62
2022-08-07T04:17:20.050Z,74.11
2022-08-07T04:19:52.050Z,73.98
2022-08-07T04:22:29.083Z,74.35
2022-08-07T04:25:12.808Z,74.20
2022-08-07T04:27:44.388Z,74.21
2022-08-07T04:30:36.069Z,73.29
2022-08-07T04:33:01.605Z,73.39
2022-08-07T04:35:38.604Z,73.43
2022-08-07T04:38:07.754Z,74.04
2022-08-07T04:40:43.948Z,73.98
2022-08-07T04:44:09.577Z,73.61
2022-08-07T04:46:25.774Z,73.69
2022-08-07T04:49:25.575Z,73.05
2022-08-07T04:52:18.358Z,72.47
2022-08-07T04:54:59.982Z,73.33
2022-08-07T04:58:15.665Z,73.54
2022-08-07T05:00:41.144Z,72.65
2022-08-07T05:04:00.085Z,72.25
2022-08-07T05:06:19.393Z,71.84
2022-08-07T05:09:03.246Z,72.72
2022-08-07T05:11:56.816Z,73.42
2022-08-07T05:14:52.378Z,72.73
2022-08-07T05:17:51.898Z,72.20
2022-08-07T05:20:16.427Z,71.78
2022-08-07T05:22:47.566Z,71.49
2022-08-07T05:25:26.278Z,71.91
2022-08-07T05:28:20.973Z,71.40
2022-08-07T05:30:52.471Z,71.33
2022-08-07T05:33:20.772Z,70.87
2022-08-07T05:35:55.499Z,70.72
2022-08-07T05:39:01.014Z,72.52
2022-08-07T05:41:14.202Z,71.40
2022-08-07T05:44:07.903Z,71.13
2022-08-07T05:46:40.040Z,71.16
2022-08-07T05:49:14.717Z,69.74
2022-08-07T05:51:52.589Z,71.31
2022-08-07T05:54:31.355Z,70.99
2022-08-07T05:57:08.364Z,70.83
2022-08-07T05:59:57.422Z,70.92
2022-08-07T06:02:29.053Z,70.54
2022-08-07T06:05:10.729Z,71.75
2022-08-07T06:08:29.576Z,71.71
2022-08-07T06:10:46.207Z,71.77
2022-08-07T06:13:18.983Z,71.39
2022-08-07T06:15:59.292Z,70.18
2022-08-07T06:18:32.358Z,71.08
2022-08-07T06:22:14.760Z,70.99
2022-08-07T06:24:50.730Z,70.07
2022-08-07T06:26:41.972Z,70.48
2022-08-07T06:29:10.430Z,70.82
2022-08-07T06:31:46.936Z,72.09
2022-08-07T06:34:19.742Z,71.89
2022-08-07T06:36:48.291Z,71.73
2022-08-07T06:40:13.585Z,71.85
2022-08-07T06:42:19.701Z,71.43
2022-08-07T06:45:01.552Z,70.73
2022-08-07T06:47:28.638Z,71.26
2022-08-07T06:50:15.166Z,70.35
2022-08-07T06:52:53.004Z,70.26
2022-08-07T06:55:33.101Z,68.80
2022-08-07T06:58:16.660Z,69.75
2022-08-07T07:00:44.729Z,69.56
2022-08-07T07:03:13.985Z,70.48
2022-08-07T07:06:02.739Z,71.44
2022-08-07T07:08:31.332Z,70.15
2022-08-07T07:11:14.088Z,68.15
2022-08-07T07:13:58.370Z,66.53
2022-08-07T07:16:45.163Z,66.74
2022-08-07T07:19:54.603Z,67.75
2022-08-07T07:22:32.269Z,67.46
2022-08-07T07:25:14.146Z,67.71
2022-08-07T07:28:42.157Z,67.71
2022-08-07T07:31:04.819Z,68.05
2022-08-07T07:33:36.311Z,67.38
2022-08-07T07:36:12.569Z,68.24
2022-08-07T07:38:42.101Z,67.72
2022-08-07T07:41:16.796Z,67.90
2022-08-07T07:44:14.787Z,67.16
2022-08-07T07:46:54.693Z,67.92
2022-08-07T07:50:34.443Z,67.77
2022-08-07T07:52:15.865Z,68.26
2022-08-07T07:54:50.491Z,68.41
2022-08-07T07:57:52.361Z,66.66
2022-08-07T08:00:11.207Z,66.89
2022-08-07T08:03:04.522Z,67.21
2022-08-07T08:05:42.834Z,67.40
2022-08-07T08:08:34.528Z,67.41
2022-08-07T08:11:01.047Z,67.97
2022-08-07T08:13:36.653Z,67.09
2022-08-07T08:16:19.901Z,66.48
2022-08-07T08:18:55.036Z,68.18
2022-08-07T08:21:55.829Z,67.63
2022-08-07T08:24:57.365Z,65.85
2022-08-07T08:27:37.286Z,65.95
2022-08-07T08:30:17.329Z,66.84
2022-08-07T08:33:00.088Z,65.67
2022-08-07T08:35:39.604Z,64.29
2022-08-07T08:38:20.757Z,62.87
2022-08-07T08:41:02.991Z,62.55
2022-08-07T08:43:42.660Z,64.52
2022-08-07T08:46:41.058Z,62.32
2022-08-07T08:49:32.877Z,63.16
2022-08-07T08:52:22.100Z,63.47
2022-08-07T08:54:55.887Z,62.68
2022-08-07T08:57:45.198Z,62.46
2022-08-07T09:00:13.949Z,61.04
2022-08-07T09:02:58.770Z,62.70
2022-08-07T09:05:53.845Z,61.96
2022-08-07T09:08:39.261Z,62.61
2022-08-07T09:11:24.251Z,63.29
2022-08-07T09:14:18.792Z,62.94
2022-08-07T09:17:34.039Z,61.69
2022-08-07T09:20:42.045Z,63.46
2022-08-07T09:24:31.402Z,63.11
2022-08-07T09:26:53.291Z,63.89
2022-08-07T09:30:03.929Z,62.76
2022-08-07T09:32:52.916Z,60.96
2022-08-07T09:36:02.889Z,61.87
2022-08-07T09:38:39.191Z,61.00
2022-08-07T09:41:36.279Z,62.28
2022-08-07T09:44:30.034Z,62.09
2022-08-07T09:47:49.987Z,60.58
2022-08-07T09:50:20.085Z,59.35
2022-08-07T09:53:00.414Z,59.44
2022-08-07T09:56:13.791Z,58.42
2022-08-07T09:58:55.417Z,59.66
2022-08-07T10:01:52.419Z,58.00
2022-08-07T10:04:53.317Z,56.85
2022-08-07T10:08:00.984Z,57.53
2022-08-07T10:12:00.099Z,58.35
2022-08-07T10:14:30.520Z,59.50
2022-08-07T10:18:01.455Z,59.29
2022-08-07T10:20:59.135Z,61.44
2022-08-07T10:24:06.812Z,61.58
2022-08-07T10:26:40.905Z,59.28
2022-08-07T10:29:32.132Z,58.84
2022-08-07T10:32:50.960Z,55.04
2022-08-07T10:35:56.601Z,56.27
2022-08-07T10:38:54.269Z,56.79
2022-08-07T10:41:51.292Z,58.79
2022-08-07T10:44:16.837Z,55.63
2022-08-07T10:46:52.230Z,59.09
2022-08-07T10:50:07.113Z,57.87
2022-08-07T10:52:55.713Z,57.57
2022-08-07T10:55:38.338Z,56.39
2022-08-07T10:58:14.722Z,55.95
2022-08-07T11:00:55.993Z,56.92
2022-08-07T11:03:52.551Z,56.00
2022-08-07T11:06:53.917Z,55.85
2022-08-07T11:10:09.859Z,57.01
2022-08-07T11:12:44.014Z,57.04
2022-08-07T11:15:31.457Z,56.38
2022-08-07T11:18:32.853Z,55.50
2022-08-07T11:21:24.861Z,56.15
2022-08-07T11:24:04.192Z,56.63
2022-08-07T11:26:48.260Z,57.22
2022-08-07T11:29:48.355Z,57.02
2022-08-07T11:32:45.746Z,56.87
2022-08-07T11:35:26.888Z,55.28
2022-08-07T11:38:12.788Z,56.92
2022-08-07T11:40:56.279Z,55.77
2022-08-07T11:43:54.491Z,56.66
2022-08-07T11:46:39.908Z,52.57
2022-08-07T11:50:18.564Z,56.19
2022-08-07T11:52:59.918Z,55.70
2022-08-07T11:56:26.049Z,55.15
2022-08-07T11:58:49.972Z,53.21
2022-08-07T12:02:00.791Z,53.21
2022-08-07T12:04:34.249Z,54.29
2022-08-07T12:07:23.593Z,54.00
2022-08-07T12:10:06.897Z,55.16
2022-08-07T12:12:42.928Z,55.07
2022-08-07T12:15:46.134Z,54.06
2022-08-07T12:18:29.740Z,56.92
2022-08-07T12:22:35.933Z,55.24
2022-08-07T12:25:02.281Z,53.58
2022-08-07T12:28:09.400Z,52.95
2022-08-07T12:30:34.954Z,55.11
2022-08-07T12:33:18.595Z,53.87
2022-08-07T12:35:48.653Z,54.34
2022-08-07T12:38:38.605Z,53.59
2022-08-07T12:41:11.570Z,54.57
2022-08-07T12:44:04.552Z,53.95
2022-08-07T12:47:03.510Z,52.69
2022-08-07T12:49:56.679Z,50.26
2022-08-07T12:52:59.483Z,51.58
2022-08-07T12:56:02.958Z,53.27
2022-08-07T12:58:39.251Z,54.30
2022-08-07T13:01:08.884Z,53.86
2022-08-07T13:04:02.756Z,53.57
2022-08-07T13:06:36.534Z,55.07
2022-08-07T13:10:20.354Z,54.86
2022-08-07T13:12:49.548Z,54.79
2022-08-07T13:15:39.760Z,55.24
2022-08-07T13:18:28.964Z,57.29
2022-08-07T13:21:37.797Z,56.92
2022-08-07T13:24:25.843Z,56.51
2022-08-07T13:27:05.874Z,56.87
2022-08-07T13:29:58.753Z,56.49
2022-08-07T13:32:41.242Z,57.14
2022-08-07T13:35:21.486Z,57.49
2022-08-07T13:38:04.199Z,57.28
2022-08-07T13:40:42.333Z,56.68
2022-08-07T13:43:15.439Z,57.77
2022-08-07T13:46:11.455Z,54.48
2022-08-07T13:48:38.794Z,55.08
2022-08-07T13:51:27.352Z,54.76
2022-08-07T13:54:00.826Z,56.59
2022-08-07T13:56:52.040Z,54.83
2022-08-07T13:59:27.233Z,56.04
2022-08-07T14:02:10.609Z,55.72
2022-08-07T14:04:54.579Z,57.57
2022-08-07T14:07:24.657Z,57.42
2022-08-07T14:10:21.599Z,57.05
2022-08-07T14:12:54.907Z,53.96
2022-08-07T14:15:35.907Z,54.44
2022-08-07T14:18:27.489Z,54.26
2022-08-07T14:22:41.081Z,50.62
2022-08-07T14:24:06.524Z,53.83
2022-08-07T14:26:40.992Z,52.50
2022-08-07T14:30:08.194Z,53.54
2022-08-07T14:32:10.592Z,52.80
2022-08-07T14:34:47.209Z,51.55
2022-08-07T14:37:17.522Z,53.09
2022-08-07T14:40:16.779Z,52.77
2022-08-07T14:43:00.637Z,50.83
2022-08-07T14:48:19.643Z,50.25
2022-08-07T14:50:56.350Z,49.06
2022-08-07T14:54:08.892Z,49.15
2022-08-07T14:56:15.963Z,50.00
2022-08-07T14:59:02.192Z,52.24
2022-08-07T15:01:42.472Z,48.53
2022-08-07T15:04:18.975Z,48.80
2022-08-07T15:06:47.738Z,50.40
2022-08-07T15:09:58.797Z,49.19
2022-08-07T15:12:25.841Z,49.92
2022-08-07T15:15:07.752Z,47.77
2022-08-07T15:17:54.847Z,46.77
2022-08-07T15:23:20.736Z,41.24
2022-08-07T15:25:53.696Z,36.63
2022-08-07T15:28:34.842Z,40.02
2022-08-07T15:31:13.105Z,40.35
2022-08-07T15:34:02.506Z,42.77
2022-08-07T15:39:19.813Z,42.96
2022-08-07T15:44:53.439Z,45.19
2022-08-07T15:47:21.901Z,44.64
2022-08-07T15:53:12.869Z,40.64
2022-08-07T15:55:53.770Z,41.99
2022-08-07T15:58:37.452Z,41.10
2022-08-07T16:01:12.517Z,40.25
2022-08-07T16:03:47.242Z,37.83
2022-08-07T16:06:34.406Z,37.57
2022-08-07T16:09:07.772Z,40.94
2022-08-07T16:11:52.534Z,40.41
2022-08-07T16:14:59.177Z,41.94
2022-08-07T16:18:02.851Z,42.84
2022-08-07T16:20:55.251Z,43.79
2022-08-07T16:24:34.305Z,44.30
2022-08-07T16:27:19.120Z,47.06
2022-08-07T16:30:09.210Z,47.32
2022-08-07T16:32:54.153Z,51.03
2022-08-07T16:35:56.817Z,49.82
2022-08-07T16:38:38.976Z,50.32
2022-08-07T16:41:54.114Z,52.99
2022-08-07T16:44:46.271Z,52.10
2022-08-07T16:47:51.462Z,53.08
2022-08-07T16:50:48.280Z,51.87
2022-08-07T16:54:06.054Z,52.40
2022-08-07T16:56:38.773Z,53.24
2022-08-07T16:59:47.111Z,53.13
2022-08-07T17:02:52.918Z,54.21
2022-08-07T17:06:19.728Z,52.13
2022-08-07T17:09:10.880Z,54.09
2022-08-07T17:12:04.728Z,54.19
2022-08-07T17:14:37.918Z,54.52
2022-08-07T17:17:14.246Z,54.52
2022-08-07T17:20:01.488Z,55.19
2022-08-07T17:22:55.145Z,54.87
2022-08-07T17:25:47.184Z,55.06
2022-08-07T17:28:31.522Z,54.96
2022-08-07T17:31:16.149Z,55.79
2022-08-07T17:34:17.871Z,55.94
2022-08-07T17:36:59.754Z,57.00
2022-08-07T17:39:57.966Z,57.74
2022-08-07T17:42:29.968Z,57.80
2022-08-07T17:44:58.840Z,58.58
2022-08-07T17:47:42.755Z,57.55
2022-08-07T17:50:19.443Z,58.27
2022-08-07T17:52:52.450Z,58.42
2022-08-07T17:55:55.592Z,57.52
2022-08-07T17:58:46.325Z,58.98
2022-08-07T18:01:24.936Z,59.20
2022-08-07T18:04:34.721Z,57.99
2022-08-07T18:07:20.397Z,58.96
2022-08-07T18:10:05.579Z,60.05
2022-08-07T18:13:11.659Z,59.67
2022-08-07T18:15:58.213Z,59.44
2022-08-07T18:21:01.263Z,59.98
2022-08-07T18:21:51.627Z,59.87
2022-08-07T18:24:34.429Z,60.33
2022-08-07T18:27:17.295Z,60.28
2022-08-07T18:30:05.749Z,59.92
2022-08-07T18:32:47.139Z,60.79
2022-08-07T18:35:28.723Z,61.79
2022-08-07T18:38:55.109Z,62.58
2022-08-07T18:41:45.804Z,63.27
2022-08-07T18:45:09.213Z,62.94
2022-08-07T18:47:44.594Z,64.08
2022-08-07T18:50:46.764Z,64.26
2022-08-07T18:53:46.529Z,63.63
2022-08-07T18:56:18.471Z,64.42
2022-08-07T18:59:09.857Z,65.75
2022-08-07T19:02:32.811Z,66.50
2022-08-07T19:05:15.823Z,66.81
2022-08-07T19:08:06.164Z,66.82
2022-08-07T19:10:51.204Z,66.90
2022-08-07T19:13:50.185Z,66.71
2022-08-07T19:17:01.106Z,66.40
2022-08-07T19:19:37.207Z,67.71
2022-08-07T19:22:31.017Z,67.72
2022-08-07T19:25:06.385Z,67.69
2022-08-07T19:30:55.674Z,69.01
2022-08-07T19:31:00.299Z,68.20
2022-08-07T19:33:18.865Z,68.48
2022-08-07T19:36:02.265Z,68.01
2022-08-07T19:38:32.611Z,68.40
2022-08-07T19:41:00.826Z,68.78
2022-08-07T19:43:48.980Z,68.58
2022-08-07T19:46:26.576Z,69.65
2022-08-07T19:49:08.433Z,70.65
2022-08-07T19:51:52.293Z,71.58
2022-08-07T19:54:35.261Z,70.72
2022-08-07T19:58:02.301Z,72.16
2022-08-07T20:00:10.434Z,71.57
2022-08-07T20:02:52.308Z,71.07
2022-08-07T20:05:28.120Z,72.48
2022-08-07T20:08:02.173Z,72.00
2022-08-07T20:10:37.839Z,73.63
2022-08-07T20:13:27.338Z,72.41
2022-08-07T20:16:02.783Z,72.70
2022-08-07T20:18:33.708Z,73.07
2022-08-07T20:21:21.522Z,73.07
2022-08-07T20:23:57.877Z,74.29
2022-08-07T20:26:38.569Z,73.91
2022-08-07T20:29:47.189Z,74.25
2022-08-07T20:32:03.157Z,74.98
2022-08-07T20:34:49.247Z,74.40
2022-08-07T20:37:25.716Z,75.17
2022-08-07T20:40:03.095Z,74.68
2022-08-07T20:42:33.590Z,74.30
2022-08-07T20:45:01.412Z,75.00
2022-08-07T20:47:55.984Z,74.62
2022-08-07T20:50:22.247Z,75.86
2022-08-07T20:52:50.389Z,76.35
2022-08-07T20:55:23.663Z,75.85
2022-08-07T20:58:02.612Z,75.63
2022-08-07T21:00:42.953Z,75.41
2022-08-07T21:03:15.666Z,75.66
2022-08-07T21:06:12.298Z,75.73
2022-08-07T21:09:13.620Z,76.17
2022-08-07T21:11:50.072Z,75.71
2022-08-07T21:14:33.318Z,77.26
2022-08-07T21:18:06.521Z,76.30
2022-08-07T21:20:04.931Z,76.52
2022-08-07T21:22:56.194Z,76.53
2022-08-07T21:25:56.423Z,77.62
2022-08-07T21:28:49.703Z,76.06
2022-08-07T21:31:49.454Z,76.61
2022-08-07T21:34:48.885Z,76.86
2022-08-07T21:37:57.314Z,77.03
2022-08-07T21:40:38.431Z,76.64
2022-08-07T21:43:15.121Z,76.31
2022-08-07T21:46:10.079Z,77.18
2022-08-07T21:49:21.014Z,77.43
2022-08-07T21:52:03.965Z,78.13
2022-08-07T21:55:03.371Z,78.05
2022-08-07T21:57:54.948Z,78.65
2022-08-07T22:00:25.734Z,79.13
2022-08-07T22:03:16.698Z,78.95
2022-08-07T22:06:30.408Z,78.23
2022-08-07T22:09:08.012Z,79.43
2022-08-07T22:12:05.665Z,79.45
2022-08-07T22:14:38.933Z,78.54
2022-08-07T22:17:35.757Z,78.34
2022-08-07T22:20:22.988Z,80.06
2022-08-07T22:22:57.311Z,79.94
2022-08-07T22:25:51.937Z,79.06
2022-08-07T22:28:52.904Z,79.65
2022-08-07T22:31:59.201Z,80.04
2022-08-07T22:34:52.979Z,80.67
2022-08-07T22:38:03.002Z,81.40
2022-08-07T22:40:28.494Z,80.67
2022-08-07T22:43:07.330Z,81.45
2022-08-07T22:46:21.341Z,80.76
2022-08-07T22:48:56.309Z,80.71
2022-08-07T22:51:54.134Z,80.24
2022-08-07T22:55:23.056Z,80.81
2022-08-07T22:58:11.659Z,80.63
2022-08-07T23:01:06.294Z,80.78
2022-08-07T23:03:58.898Z,81.75
2022-08-07T23:06:32.951Z,81.63
2022-08-07T23:10:04.947Z,80.57
2022-08-07T23:12:32.854Z,81.85
2022-08-07T23:15:07.678Z,82.27
2022-08-07T23:17:45.178Z,82.14
2022-08-07T23:20:52.602Z,81.13
2022-08-07T23:24:05.608Z,81.66
2022-08-07T23:27:13.466Z,81.68
2022-08-07T23:30:35.958Z,80.82
2022-08-07T23:34:36.540Z,82.25
2022-08-07T23:36:30.782Z,81.29
2022-08-07T23:39:22.185Z,81.62
2022-08-07T23:42:09.558Z,81.81
2022-08-07T23:44:54.610Z,81.45
2022-08-07T23:47:50.977Z,82.12
2022-08-07T23:50:49.643Z,82.38
2022-08-07T23:53:51.530Z,81.93
2022-08-07T23:56:41.702Z,81.79
